Aberfeldy, United Kingdom
Current Conditions -  °F | °C
As of 4:20 PM on Thursday 27 Nov 2014 (Local Time) from EGPN Reporting Station
Light Rain Light Rain  
Wind Chill: 45°   Ceiling: 1300
Heat Index: 48°   Visibility: 3mi
Dew Point: 46°   Wind: 8mph
Humidity: 93%   Direction: 60°ENE
Pressure: 29.59"   Gusts: NA
Location:  56.62°N, 3.86°W
Report Text: EGPN 271620Z 06007KT 5000 -RA FEW006 BKN013 09/08 Q1002
Loading
Personal Weather Stations






























Interactive Weather Map New forecast layout! Learn more

10-Day Weather Forecast

Advertisements
Track Severe Weather on mobile